Time;durP1;ratioP1;P1;durP2;ratioP2;P2;SDS_P1;SDS_P2;PMS_P1;PMS_P2;Temp;Humidity;BMP_temperature;BMP_pressure;BME280_temperature;BME280_humidity;BME280_pressure;Samples;Min_cycle;Max_cycle;Signal;HPM_P1;HPM_P2
2023/04/07 00:01:36;;;;;;;6.57;5.23;;;;;;;10.20;56.49;99515.34;5017454;28;20195;-77
2023/04/07 00:04:01;;;;;;;9.60;6.57;;;;;;;10.23;56.39;99516.94;5018269;28;20756;-77
2023/04/07 00:06:27;;;;;;;7.73;6.80;;;;;;;10.23;56.53;99516.94;5018613;28;20754;-78
2023/04/07 00:08:53;;;;;;;7.40;5.50;;;;;;;10.23;56.47;99522.19;5033588;28;20626;-77
2023/04/07 00:11:19;;;;;;;5.10;4.60;;;;;;;10.19;56.59;99510.22;5018765;28;20826;-77
2023/04/07 00:13:45;;;;;;;5.75;4.43;;;;;;;10.17;56.56;99509.47;5017666;28;20194;-78
2023/04/07 00:16:10;;;;;;;4.33;3.90;;;;;;;10.16;56.71;99518.28;5017826;28;20214;-78
2023/04/07 00:18:35;;;;;;;4.97;4.57;;;;;;;10.12;57.18;99509.75;5019029;28;20747;-78
2023/04/07 00:21:01;;;;;;;7.70;5.17;;;;;;;10.10;57.38;99506.38;5018479;28;20281;-78
2023/04/07 00:23:26;;;;;;;5.50;5.00;;;;;;;10.08;57.43;99510.88;5017765;28;20201;-77
2023/04/07 00:25:52;;;;;;;4.73;3.80;;;;;;;10.07;57.34;99505.72;5018274;28;20279;-78
2023/04/07 00:28:17;;;;;;;7.80;4.97;;;;;;;10.08;57.45;99513.50;5018438;28;20194;-78
2023/04/07 00:30:42;;;;;;;4.93;4.43;;;;;;;10.08;57.72;99500.38;5016501;28;20552;-78
2023/04/07 00:33:08;;;;;;;6.57;5.10;;;;;;;10.10;57.54;99495.03;5019700;28;20194;-78
2023/04/07 00:35:33;;;;;;;5.87;5.13;;;;;;;10.14;58.38;99493.91;5020145;28;20929;-77
2023/04/07 00:37:59;;;;;;;7.53;6.70;;;;;;;10.15;58.40;99492.94;5022289;28;20469;-78
2023/04/07 00:40:24;;;;;;;5.50;4.80;;;;;;;10.16;58.29;99489.41;5021104;28;20253;-78
2023/04/07 00:42:51;;;;;;;7.83;5.23;;;;;;;10.17;58.15;99485.84;5022353;28;20326;-77
2023/04/07 00:45:17;;;;;;;7.22;4.95;;;;;;;10.12;58.23;99483.50;5021037;28;20643;-77
2023/04/07 00:47:43;;;;;;;6.65;5.40;;;;;;;10.04;58.35;99484.94;5021732;28;20216;-77
2023/04/07 00:50:08;;;;;;;5.63;4.63;;;;;;;9.96;58.51;99475.78;5021313;28;20198;-77
2023/04/07 00:52:34;;;;;;;7.70;5.40;;;;;;;9.91;58.77;99474.34;5022085;28;20199;-77
2023/04/07 00:55:00;;;;;;;5.35;4.85;;;;;;;9.85;58.64;99477.38;5022083;28;20222;-77
2023/04/07 00:57:26;;;;;;;5.20;4.70;;;;;;;9.82;58.82;99469.69;5020516;28;20221;-77
2023/04/07 00:59:52;;;;;;;5.88;4.65;;;;;;;9.82;58.77;99467.06;5021933;28;20209;-77
2023/04/07 01:02:37;;;;;;;6.53;5.28;;;;;;;9.83;58.55;99460.88;5021513;28;20203;-77
2023/04/07 01:05:24;;;;;;;6.22;4.88;;;;;;;9.79;58.72;99460.25;5020144;28;20230;-77
2023/04/07 01:08:16;;;;;;;5.88;4.57;;;;;;;9.77;58.81;99467.34;5037136;28;20208;-77
2023/04/07 01:10:55;;;;;;;4.75;4.25;;;;;;;9.78;58.77;99457.72;5019784;28;20543;-77
2023/04/07 01:13:35;;;;;;;8.30;4.50;;;;;;;9.80;58.74;99459.28;5019560;28;20297;-77
2023/04/07 01:16:40;;;;;;;5.13;4.65;;;;;;;9.84;58.53;99462.59;5018883;28;20730;-77
2023/04/07 01:19:24;;;;;;;6.72;4.78;;;;;;;9.86;58.57;99456.31;5018018;28;20279;-77
2023/04/07 01:21:57;;;;;;;5.00;4.50;;;;;;;9.89;58.53;99452.66;5018267;28;20664;-77
2023/04/07 01:24:41;;;;;;;7.63;4.40;;;;;;;9.92;58.42;99449.81;5019091;28;20194;-77
2023/04/07 01:30:57;;;;;;;4.93;4.35;;;;;;;9.97;58.17;99448.59;5017878;28;20747;-77
2023/04/07 01:33:24;;;;;;;7.90;4.78;;;;;;;10.00;58.17;99446.72;5019487;28;20294;-77
2023/04/07 01:35:50;;;;;;;4.60;4.20;;;;;;;10.02;58.57;99445.69;5020766;28;20198;-77
2023/04/07 01:38:16;;;;;;;7.47;4.43;;;;;;;10.02;58.39;99442.19;5019658;28;20682;-77
2023/04/07 01:40:43;;;;;;;5.88;4.80;;;;;;;9.97;58.67;99435.47;5019945;28;20352;-77
2023/04/07 01:43:10;;;;;;;7.28;3.97;;;;;;;9.94;58.90;99429.59;5020439;28;20206;-77
2023/04/07 01:45:36;;;;;;;5.75;4.45;;;;;;;9.93;58.87;99433.13;5020147;28;20198;-77
2023/04/07 01:48:07;;;;;;;5.67;4.87;;;;;;;9.94;58.71;99427.78;5019802;28;20279;-77
2023/04/07 01:50:33;;;;;;;6.78;4.43;;;;;;;9.96;58.79;99423.31;5020240;28;20449;-77
2023/04/07 01:53:05;;;;;;;5.00;4.50;;;;;;;9.96;58.83;99418.06;5021393;28;20732;-77
2023/04/07 01:55:31;;;;;;;7.80;4.90;;;;;;;9.96;58.76;99415.44;5035858;28;20209;-77
2023/04/07 01:58:05;;;;;;;5.90;5.07;;;;;;;9.98;58.83;99408.28;5019107;28;20214;-77
2023/04/07 02:00:31;;;;;;;7.47;5.35;;;;;;;9.98;58.97;99402.19;5018223;28;20195;-77
2023/04/07 02:03:04;;;;;;;9.07;5.82;;;;;;;9.94;59.08;99403.34;5002939;28;20257;-77
2023/04/07 02:05:30;;;;;;;10.40;5.43;;;;;;;9.89;59.20;99403.63;5014832;28;20760;-77
2023/04/07 02:08:02;;;;;;;7.97;5.30;;;;;;;9.86;59.26;99398.59;5017866;28;20305;-77
2023/04/07 02:10:33;;;;;;;5.45;4.40;;;;;;;9.83;59.23;99396.16;5016776;28;20252;-77
2023/04/07 02:13:02;;;;;;;4.63;3.58;;;;;;;9.81;59.38;99394.56;5018833;28;20222;-77
2023/04/07 02:15:30;;;;;;;5.50;4.32;;;;;;;9.79;59.28;99391.19;5017577;28;20202;-77
2023/04/07 02:17:58;;;;;;;6.20;4.30;;;;;;;9.77;59.22;99388.66;5020543;28;20816;-77
2023/04/07 02:20:24;;;;;;;4.07;3.08;;;;;;;9.73;59.46;99388.03;5018693;28;20194;-77
2023/04/07 02:22:49;;;;;;;4.13;3.33;;;;;;;9.69;59.65;99383.06;5020526;28;20217;-77
2023/04/07 02:25:27;;;;;;;5.20;4.45;;;;;;;9.65;59.90;99386.84;5018425;28;20221;-77
2023/04/07 02:27:53;;;;;;;6.10;3.72;;;;;;;9.60;60.17;99381.88;5018621;28;20679;-77
2023/04/07 02:30:19;;;;;;;3.95;3.53;;;;;;;9.56;60.29;99380.41;5019866;28;20206;-77
2023/04/07 02:32:45;;;;;;;4.95;4.50;;;;;;;9.49;60.81;99368.59;5018433;28;20198;-77
2023/04/07 02:35:11;;;;;;;4.93;4.37;;;;;;;9.38;61.18;99360.56;5019840;28;20544;-77
2023/04/07 02:37:37;;;;;;;9.00;4.37;;;;;;;9.29;61.33;99360.22;5019124;28;20219;-77
2023/04/07 02:40:03;;;;;;;4.97;3.85;;;;;;;9.25;61.56;99357.88;5018397;28;20709;-77
2023/04/07 02:42:29;;;;;;;6.30;5.05;;;;;;;9.19;61.63;99353.84;5018089;28;20665;-77
2023/04/07 02:44:54;;;;;;;7.50;4.83;;;;;;;9.18;61.66;99356.56;5019283;28;20261;-77
2023/04/07 02:47:20;;;;;;;4.93;3.60;;;;;;;9.17;61.84;99362.75;5019571;28;20190;-77
2023/04/07 02:49:45;;;;;;;4.80;4.30;;;;;;;9.16;61.93;99371.56;5016960;28;20207;-77
2023/04/07 02:52:11;;;;;;;4.50;3.63;;;;;;;9.13;62.26;99371.72;5019562;28;20213;-78
2023/04/07 02:54:36;;;;;;;5.80;5.30;;;;;;;9.05;62.32;99374.84;5019769;28;20202;-77
2023/04/07 02:57:02;;;;;;;5.10;4.60;;;;;;;8.98;62.48;99374.34;5018685;28;20268;-77
2023/04/07 02:59:27;;;;;;;5.30;4.37;;;;;;;8.96;62.66;99368.34;5016721;28;20195;-77
2023/04/07 03:01:53;;;;;;;5.63;4.17;;;;;;;8.96;62.56;99370.13;5017751;28;20749;-77
2023/04/07 03:04:18;;;;;;;4.13;3.83;;;;;;;8.97;62.71;99363.97;5013717;28;20227;-78
2023/04/07 03:06:44;;;;;;;5.67;5.13;;;;;;;8.97;62.53;99358.75;5016221;28;20587;-77
2023/04/07 03:09:13;;;;;;;4.47;4.07;;;;;;;8.98;62.62;99361.25;5015536;28;20202;-77
2023/04/07 03:11:40;;;;;;;5.57;4.00;;;;;;;9.01;62.44;99355.81;5017057;28;21102;-77
2023/04/07 03:14:06;;;;;;;4.90;4.50;;;;;;;9.01;62.76;99358.44;5014967;28;20606;-77
2023/04/07 03:16:34;;;;;;;6.60;5.57;;;;;;;9.03;62.53;99359.19;5017472;28;20206;-77
2023/04/07 03:19:05;;;;;;;5.57;4.90;;;;;;;9.06;62.66;99355.53;5017456;28;20198;-77
2023/04/07 03:21:36;;;;;;;5.75;5.18;;;;;;;9.08;62.42;99358.91;5019002;28;20206;-77
2023/04/07 03:24:02;;;;;;;9.02;6.10;;;;;;;9.11;62.52;99360.50;5017470;28;20203;-77
2023/04/07 03:26:27;;;;;;;8.03;5.80;;;;;;;9.13;62.44;99356.88;5017292;28;20206;-77
2023/04/07 03:28:53;;;;;;;8.83;6.60;;;;;;;9.16;62.41;99353.22;5017776;28;20646;-77
2023/04/07 03:31:19;;;;;;;7.20;6.40;;;;;;;9.17;62.33;99354.88;5017430;28;20194;-77
2023/04/07 03:33:49;;;;;;;6.57;5.53;;;;;;;9.18;62.44;99357.44;5016034;28;20202;-77
2023/04/07 03:36:16;;;;;;;5.53;4.85;;;;;;;9.19;62.39;99355.63;5017448;28;20662;-77
2023/04/07 03:38:42;;;;;;;8.35;5.40;;;;;;;9.20;62.61;99342.41;5017220;28;20205;-77
2023/04/07 03:41:07;;;;;;;9.83;4.93;;;;;;;9.21;62.66;99349.38;5016702;28;20563;-77
2023/04/07 03:43:32;;;;;;;5.70;4.53;;;;;;;9.21;62.46;99338.88;5018573;28;20202;-77
2023/04/07 03:46:00;;;;;;;6.28;5.68;;;;;;;9.18;62.63;99332.97;5017430;28;20213;-77
2023/04/07 03:48:25;;;;;;;5.20;4.37;;;;;;;9.14;62.82;99336.75;5016806;28;20191;-77
2023/04/07 03:51:00;;;;;;;7.18;5.20;;;;;;;9.12;62.97;99333.34;5016937;28;20280;-77
2023/04/07 03:53:26;;;;;;;7.75;5.25;;;;;;;9.13;62.85;99327.16;5016825;28;20194;-77
2023/04/07 03:55:52;;;;;;;5.50;5.00;;;;;;;9.15;62.77;99327.94;5017075;28;20206;-77
2023/04/07 03:58:26;;;;;;;5.82;3.60;;;;;;;9.17;62.59;99328.69;5017093;28;20201;-78
2023/04/07 04:00:52;;;;;;;4.73;4.00;;;;;;;9.21;62.54;99332.81;5016951;28;20198;-78
2023/04/07 04:03:17;;;;;;;7.33;5.03;;;;;;;9.22;62.41;99324.00;5017339;28;20233;-77
2023/04/07 04:06:05;;;;;;;4.80;4.28;;;;;;;9.23;62.37;99320.44;5032679;28;20223;-78
2023/04/07 04:08:31;;;;;;;9.10;4.90;;;;;;;9.25;62.37;99323.81;5017224;28;20288;-77
2023/04/07 04:10:57;;;;;;;4.43;3.40;;;;;;;9.27;62.45;99321.94;5017189;28;20241;-77
2023/04/07 04:13:26;;;;;;;4.38;4.05;;;;;;;9.28;62.15;99319.19;5016702;28;20237;-77
2023/04/07 04:15:53;;;;;;;4.63;4.22;;;;;;;9.29;62.04;99315.66;5017086;28;20301;-77
2023/04/07 04:18:18;;;;;;;6.30;4.70;;;;;;;9.32;62.13;99317.25;5015629;28;20293;-77
2023/04/07 04:20:44;;;;;;;6.60;3.77;;;;;;;9.33;62.10;99315.47;5016497;28;20237;-77
2023/04/07 04:23:09;;;;;;;4.60;3.53;;;;;;;9.31;62.29;99315.53;5017303;28;20198;-77
2023/04/07 04:25:38;;;;;;;6.53;4.18;;;;;;;9.26;62.17;99315.00;5015704;28;20289;-77
2023/04/07 04:28:06;;;;;;;8.00;4.47;;;;;;;9.18;62.65;99305.00;5016159;28;20703;-77
2023/04/07 04:30:31;;;;;;;4.13;3.17;;;;;;;9.07;63.00;99310.94;5017751;28;20210;-77
2023/04/07 04:33:01;;;;;;;5.60;3.72;;;;;;;8.97;63.40;99303.72;5016394;28;20686;-77
2023/04/07 04:35:34;;;;;;;5.53;4.32;;;;;;;8.93;64.05;99310.91;5015673;28;20508;-77
2023/04/07 04:38:07;;;;;;;5.35;3.58;;;;;;;8.84;64.76;99301.00;5016307;28;20234;-77
2023/04/07 04:40:33;;;;;;;4.03;3.65;;;;;;;8.75;64.79;99304.19;5017066;28;20207;-77
2023/04/07 04:42:59;;;;;;;3.33;3.03;;;;;;;8.73;64.79;99306.06;5016203;28;20210;-77
2023/04/07 04:45:25;;;;;;;4.45;4.00;;;;;;;8.74;64.70;99297.28;5016066;28;20566;-77
2023/04/07 04:47:50;;;;;;;3.97;3.57;;;;;;;8.76;64.58;99308.50;5015418;28;20194;-77
2023/04/07 04:50:16;;;;;;;4.00;3.60;;;;;;;8.75;64.51;99307.66;5017819;28;20206;-77
2023/04/07 04:52:44;;;;;;;5.30;3.92;;;;;;;8.73;64.41;99311.31;5031903;28;20313;-77
2023/04/07 04:55:17;;;;;;;7.30;3.90;;;;;;;8.73;64.42;99309.53;5016512;28;20206;-77
2023/04/07 04:57:43;;;;;;;4.25;3.95;;;;;;;8.75;64.22;99302.44;5016703;28;20690;-77
2023/04/07 05:00:12;;;;;;;3.60;3.30;;;;;;;8.79;63.95;99311.75;5016439;28;20209;-77
2023/04/07 05:02:41;;;;;;;5.97;3.63;;;;;;;8.81;64.00;99304.66;4999252;28;20664;-77
2023/04/07 05:05:07;;;;;;;5.50;4.60;;;;;;;8.82;64.02;99306.34;5032452;28;20214;-77
2023/04/07 05:07:40;;;;;;;3.53;3.20;;;;;;;8.81;64.00;99309.06;5376935;22;20318;-90
2023/04/07 05:10:15;;;;;;;6.40;3.28;;;;;;;8.82;64.04;99313.34;4996430;28;20444;-90
2023/04/07 05:12:56;;;;;;;4.25;3.58;;;;;;;8.85;63.94;99314.00;5005519;28;20264;-92
2023/04/07 05:15:54;;;;;;;6.10;3.70;;;;;;;8.89;63.88;99317.28;5002803;28;20643;-91
2023/04/07 05:18:42;;;;;;;6.18;4.25;;;;;;;8.98;63.64;99316.72;4993441;28;20482;-91
2023/04/07 05:21:19;;;;;;;3.92;3.50;;;;;;;9.21;63.34;99312.69;5001247;28;20639;-91
2023/04/07 05:23:57;;;;;;;3.72;3.42;;;;;;;9.48;62.67;99311.88;4998574;28;20691;-91
2023/04/07 05:26:36;;;;;;;4.90;3.95;;;;;;;9.64;62.08;99317.81;4997447;28;20277;-90
2023/04/07 05:29:12;;;;;;;4.80;4.32;;;;;;;9.70;61.84;99330.53;5013039;28;20203;-91
2023/04/07 05:31:55;;;;;;;4.00;3.20;;;;;;;9.66;61.71;99313.28;5021509;28;20284;-91
2023/04/07 05:34:54;;;;;;;3.85;3.45;;;;;;;9.55;62.19;99326.25;5013411;28;20190;-91
2023/04/07 05:37:33;;;;;;;3.45;3.15;;;;;;;9.41;62.53;99324.50;5002440;28;20209;-91
2023/04/07 05:40:34;;;;;;;;;;;;;;;;;;;;;
2023/04/07 05:42:58;;;;;;;3.38;3.10;;;;;;;9.28;62.87;99323.59;4997562;28;20272;-92
2023/04/07 05:45:31;;;;;;;3.85;3.50;;;;;;;9.26;63.13;99320.22;5002354;28;20571;-92
2023/04/07 05:47:59;;;;;;;5.55;3.28;;;;;;;9.27;62.86;99327.19;5012669;28;20205;-92
2023/04/07 05:50:44;;;;;;;4.53;3.17;;;;;;;9.29;62.94;99326.16;4997072;28;20198;-92
2023/04/07 05:53:14;;;;;;;3.63;3.33;;;;;;;9.32;62.87;99325.13;4996383;28;20576;-92
2023/04/07 05:55:53;;;;;;;4.67;3.70;;;;;;;9.35;62.88;99322.28;4997700;28;20198;-91
2023/04/07 05:58:41;;;;;;;4.60;3.80;;;;;;;9.39;62.78;99320.31;4994400;28;20203;-91
2023/04/07 06:01:30;;;;;;;;;;;;;;;;;;;;;
2023/04/07 06:04:07;;;;;;;;;;;;;;;;;;;;;
2023/04/07 06:06:59;;;;;;;;;;;;;;;;;;;;;
2023/04/07 06:09:35;;;;;;;5.35;3.10;;;;;;;9.41;62.32;99323.69;4995247;28;20203;-92
2023/04/07 06:12:21;;;;;;;;;;;;;;;;;;;;;
2023/04/07 06:15:10;;;;;;;4.35;3.95;;;;;;;9.41;63.12;99335.00;4995268;28;20734;-93
2023/04/07 06:17:46;;;;;;;;;;;;;;;;;;;;;
2023/04/07 06:20:20;;;;;;;4.40;4.05;;;;;;;9.27;63.36;99340.28;4999589;28;20561;-92
2023/04/07 06:22:58;;;;;;;3.88;3.30;;;;;;;9.27;63.10;99346.34;4998432;28;20228;-92
2023/04/07 06:25:29;;;;;;;3.95;3.25;;;;;;;9.30;63.15;99340.09;4995266;28;20273;-92
2023/04/07 06:28:11;;;;;;;;;;;;;;;;;;;;;
2023/04/07 06:30:40;;;;;;;4.28;3.80;;;;;;;9.42;63.07;99344.53;4995175;28;20668;-92
2023/04/07 06:33:11;;;;;;;3.67;3.05;;;;;;;9.47;62.48;99357.38;4997866;28;20198;-93
2023/04/07 06:35:43;;;;;;;5.38;3.60;;;;;;;9.51;62.66;99356.25;5019139;28;20202;-92
2023/04/07 06:38:11;;;;;;;4.28;3.63;;;;;;;9.56;62.67;99359.44;5003938;28;20669;-92
2023/04/07 06:40:47;;;;;;;4.10;3.70;;;;;;;9.58;62.88;99362.75;5002680;28;20389;-92
2023/04/07 06:43:12;;;;;;;4.93;3.45;;;;;;;9.60;62.56;99354.81;4998098;28;21034;-92
2023/04/07 06:45:50;;;;;;;4.95;4.45;;;;;;;9.61;62.58;99357.31;4998123;28;20282;-93
2023/04/07 06:48:33;;;;;;;;;;;;;;;;;;;;;
2023/04/07 06:50:59;;;;;;;6.47;4.10;;;;;;;9.66;62.28;99360.50;5001151;28;20214;-92
2023/04/07 06:53:34;;;;;;;5.90;4.55;;;;;;;9.67;62.27;99358.75;4998645;28;20568;-91
2023/04/07 06:56:15;;;;;;;4.72;4.32;;;;;;;9.68;62.26;99357.78;4998087;28;20617;-93
2023/04/07 06:58:53;;;;;;;;;;;;;;;;;;;;;
2023/04/07 07:01:40;;;;;;;4.97;4.40;;;;;;;9.79;61.84;99359.72;5002900;28;20204;-92
2023/04/07 07:04:19;;;;;;;8.95;3.67;;;;;;;9.84;61.61;99362.91;5002530;28;21189;-93
2023/04/07 07:06:45;;;;;;;6.03;4.33;;;;;;;9.92;61.70;99360.63;4998652;28;20516;-93
2023/04/07 07:09:26;;;;;;;4.15;3.70;;;;;;;9.97;61.68;99364.63;5004561;28;20213;-92
2023/04/07 07:12:05;;;;;;;5.00;4.50;;;;;;;10.04;61.50;99361.59;5003201;28;20194;-92
2023/04/07 07:14:46;;;;;;;;;;;;;;;;;;;;;
2023/04/07 07:17:31;;;;;;;;;;;;;;;;;;;;;
2023/04/07 07:20:04;;;;;;;5.68;4.38;;;;;;;10.21;61.02;99371.84;5000683;28;20245;-93
2023/04/07 07:22:35;;;;;;;10.07;4.80;;;;;;;10.27;60.86;99374.09;5004123;28;20198;-92
2023/04/07 07:25:16;;;;;;;5.93;5.00;;;;;;;10.39;60.50;99375.03;5001525;28;20568;-93
2023/04/07 07:28:03;;;;;;;4.43;4.03;;;;;;;10.54;60.67;99374.03;5003677;28;20201;-92
2023/04/07 07:30:40;;;;;;;5.20;3.92;;;;;;;10.65;60.34;99370.69;5002213;28;20400;-92
2023/04/07 07:33:33;;;;;;;4.22;3.83;;;;;;;10.75;60.20;99373.53;5000904;28;20213;-92
2023/04/07 07:36:36;;;;;;;6.05;5.45;;;;;;;10.88;59.73;99376.16;4998119;28;20599;-92
2023/04/07 07:39:07;;;;;;;5.07;4.57;;;;;;;10.90;59.47;99375.09;5003739;28;20210;-93
2023/04/07 07:41:48;;;;;;;;;;;;;;;;;;;;;
2023/04/07 07:44:13;;;;;;;11.35;5.13;;;;;;;11.07;59.33;99387.06;4997244;28;20210;-92
2023/04/07 07:46:51;;;;;;;;;;;;;;;;;;;;;
2023/04/07 07:49:36;;;;;;;4.88;4.38;;;;;;;11.34;58.50;99379.06;4997372;28;20681;-92
2023/04/07 07:52:21;;;;;;;;;;;;;;;;;;;;;
2023/04/07 07:55:13;;;;;;;5.72;4.53;;;;;;;11.72;57.31;99383.38;5000997;28;20601;-90
2023/04/07 07:57:49;;;;;;;7.47;4.18;;;;;;;11.81;56.88;99384.50;4999157;28;20218;-92
2023/04/07 08:00:30;;;;;;;;;;;;;;;;;;;;;
2023/04/07 08:03:09;;;;;;;4.05;3.65;;;;;;;11.88;56.29;99385.75;4998756;28;20574;-92
2023/04/07 08:05:55;;;;;;;5.50;4.43;;;;;;;11.90;55.90;99389.97;4997409;28;20408;-92
2023/04/07 08:08:31;;;;;;;;;;;;;;;;;;;;;
2023/04/07 08:11:07;;;;;;;4.53;3.58;;;;;;;11.97;55.42;99403.53;4998816;28;20288;-92
2023/04/07 08:13:38;;;;;;;5.10;3.80;;;;;;;11.97;55.24;99400.91;4997818;28;20604;-90
2023/04/07 08:16:05;;;;;;;4.35;3.90;;;;;;;11.94;54.88;99411.66;4999174;28;20195;-92
2023/04/07 08:18:33;;;;;;;5.05;3.85;;;;;;;11.85;54.24;99421.00;4998421;28;20205;-93
2023/04/07 08:21:08;;;;;;;5.13;3.87;;;;;;;11.76;54.08;99420.84;4996450;28;20198;-91
2023/04/07 08:23:38;;;;;;;6.22;3.92;;;;;;;11.72;54.27;99418.44;4998219;28;20248;-91
2023/04/07 08:26:08;;;;;;;5.35;4.10;;;;;;;11.74;54.25;99424.41;4993192;28;20190;-91
2023/04/07 08:28:34;;;;;;;5.43;4.93;;;;;;;11.81;54.33;99429.25;4997907;28;20205;-93
2023/04/07 08:31:15;;;;;;;4.70;3.72;;;;;;;11.87;54.23;99432.31;4994312;28;20202;-90
2023/04/07 08:33:41;;;;;;;4.43;3.58;;;;;;;11.91;54.31;99430.31;4998393;28;20197;-92
2023/04/07 08:36:09;;;;;;;5.00;4.20;;;;;;;11.99;54.59;99432.34;4995153;28;20461;-92
2023/04/07 08:38:37;;;;;;;4.22;3.83;;;;;;;11.94;54.69;99432.72;4991385;28;20282;-93
2023/04/07 08:41:16;;;;;;;4.10;3.70;;;;;;;11.88;55.06;99436.63;4992985;28;20203;-92
2023/04/07 08:43:45;;;;;;;7.07;3.95;;;;;;;11.83;55.59;99443.16;4993116;28;20222;-91
2023/04/07 08:46:12;;;;;;;4.88;4.05;;;;;;;11.81;55.59;99445.03;4995158;28;20198;-92
2023/04/07 08:48:51;;;;;;;6.13;4.40;;;;;;;11.83;55.97;99448.41;5005001;28;20227;-91
2023/04/07 08:51:51;;;;;;;7.40;4.38;;;;;;;11.85;56.30;99452.59;5008452;28;20221;-92
2023/04/07 08:54:24;;;;;;;5.75;4.63;;;;;;;11.88;56.32;99454.19;5014110;28;20496;-89
2023/04/07 08:57:04;;;;;;;4.82;3.28;;;;;;;11.86;56.86;99464.00;5000670;28;20218;-91
2023/04/07 08:59:42;;;;;;;;;;;;;;;;;;;;;
2023/04/07 09:02:10;;;;;;;7.97;3.97;;;;;;;11.78;57.46;99464.50;4997490;28;20237;-91
2023/04/07 09:04:36;;;;;;;5.23;4.60;;;;;;;11.72;57.77;99464.97;4997221;28;20672;-91
2023/04/07 09:07:04;;;;;;;7.20;4.70;;;;;;;11.65;58.30;99475.06;5002873;28;20300;-91
2023/04/07 09:09:42;;;;;;;6.38;4.65;;;;;;;11.60;58.97;99479.78;4997192;28;20293;-92
2023/04/07 09:12:08;;;;;;;5.15;4.47;;;;;;;11.54;59.52;99477.59;4998974;28;20194;-92
2023/04/07 09:14:34;;;;;;;4.60;4.20;;;;;;;11.49;59.84;99479.72;4995680;28;20225;-92
2023/04/07 09:17:02;;;;;;;5.77;4.10;;;;;;;11.43;60.28;99478.34;5002148;28;20577;-91
2023/04/07 09:19:37;;;;;;;5.30;4.65;;;;;;;11.38;60.92;99480.44;4996001;28;20202;-92
2023/04/07 09:22:05;;;;;;;5.88;4.90;;;;;;;11.36;61.24;99484.97;4994517;28;20199;-91
2023/04/07 09:24:35;;;;;;;8.82;4.05;;;;;;;11.37;61.48;99483.16;4995720;28;20199;-92
2023/04/07 09:27:16;;;;;;;4.32;3.90;;;;;;;11.33;61.70;99481.72;5002087;28;20214;-90
2023/04/07 09:29:48;;;;;;;4.13;3.42;;;;;;;11.25;62.26;99480.44;5012627;28;20195;-91
2023/04/07 09:32:46;;;;;;;6.13;4.45;;;;;;;11.18;62.63;99489.72;4995957;28;20226;-91
2023/04/07 09:35:14;;;;;;;4.40;4.00;;;;;;;11.12;62.93;99484.84;5001771;28;20210;-92
2023/04/07 09:37:49;;;;;;;3.72;3.28;;;;;;;11.11;63.01;99498.94;4996948;28;20206;-91
2023/04/07 09:40:30;;;;;;;3.78;2.85;;;;;;;11.05;63.20;99496.75;4996517;28;20414;-92
2023/04/07 09:43:05;;;;;;;4.70;3.08;;;;;;;11.05;63.10;99494.94;4998849;28;20191;-92
2023/04/07 09:45:34;;;;;;;2.90;2.70;;;;;;;11.08;62.89;99504.41;4996277;28;20614;-92
2023/04/07 09:48:07;;;;;;;2.47;2.27;;;;;;;11.05;62.42;99496.75;4998172;28;20199;-91
2023/04/07 09:50:48;;;;;;;2.28;2.05;;;;;;;11.10;62.11;99497.28;5001077;28;20449;-92
2023/04/07 09:53:24;;;;;;;;;;;;;;;;;;;;;
2023/04/07 09:55:57;;;;;;;5.07;2.15;;;;;;;11.25;61.24;99500.63;5001498;28;20249;-92
2023/04/07 09:58:30;;;;;;;2.92;2.33;;;;;;;11.31;61.01;99502.84;5002073;28;20828;-91
2023/04/07 10:01:07;;;;;;;2.45;1.85;;;;;;;11.38;60.53;99504.13;4997545;28;20198;-91
2023/04/07 10:03:38;;;;;;;3.40;2.75;;;;;;;11.40;60.18;99499.59;4996941;28;20202;-91
2023/04/07 10:06:16;;;;;;;;;;;;;;;;;;;;;
2023/04/07 10:08:49;;;;;;;3.35;2.53;;;;;;;11.58;60.20;99499.25;4995610;28;20542;-91
2023/04/07 10:11:19;;;;;;;2.38;2.15;;;;;;;11.73;60.01;99500.84;4997668;28;20652;-91
2023/04/07 10:13:57;;;;;;;;;;;;;;;;;;;;;
2023/04/07 10:16:34;;;;;;;1.70;1.60;;;;;;;12.02;59.67;99496.19;4999429;28;20675;-92
2023/04/07 10:19:08;;;;;;;1.95;1.73;;;;;;;12.09;59.33;99501.84;5009484;28;20206;-92
2023/04/07 10:21:42;;;;;;;1.80;1.58;;;;;;;12.11;58.99;99500.78;5009361;28;20195;-91
2023/04/07 10:24:36;;;;;;;3.63;2.15;;;;;;;12.01;59.03;99505.00;5025685;28;20237;-91
2023/04/07 10:27:35;;;;;;;2.78;2.15;;;;;;;11.93;59.17;99509.97;5017286;28;20275;-92
2023/04/07 10:30:10;;;;;;;1.85;1.75;;;;;;;11.94;59.27;99509.03;5010699;28;20244;-93
2023/04/07 10:33:10;;;;;;;1.98;1.88;;;;;;;11.91;59.14;99511.91;5010695;28;20910;-94
2023/04/07 10:36:19;;;;;;;3.58;2.40;;;;;;;11.79;59.18;99518.81;5006280;28;20799;-93
2023/04/07 10:39:36;;;;;;;;;;;;;;;;;;;;;
2023/04/07 10:43:14;;;;;;;;;;;;;;;;;;;;;
2023/04/07 10:46:51;;;;;;;;;;;;;;;;;;;;;
2023/04/07 10:50:17;;;;;;;2.50;1.70;;;;;;;11.42;60.08;99531.03;5011817;28;20324;-94
2023/04/07 10:53:41;;;;;;;;;;;;;;;;;;;;;
2023/04/07 10:57:23;;;;;;;4.20;2.90;;;;;;;11.28;60.59;99539.88;5002580;28;20222;-94
2023/04/07 11:00:57;;;;;;;2.53;1.60;;;;;;;11.19;60.99;99537.88;5010290;28;20679;-93
2023/04/07 11:04:15;;;;;;;2.20;2.00;;;;;;;11.19;61.07;99535.25;5022470;28;20190;-92
2023/04/07 11:07:37;;;;;;;1.20;1.10;;;;;;;11.21;60.92;99536.81;4987146;28;20231;-93
2023/04/07 11:33:09;;;;;;;;;;;;;;;;;;;;;
2023/04/07 11:42:57;;;;;;;7.78;4.82;;;;;;;11.81;60.33;99540.59;4924475;28;20217;-93
2023/04/07 11:46:36;;;;;;;;;;;;;;;;;;;;;
2023/04/07 11:50:36;;;;;;;;;;;;;;;;;;;;;
2023/04/07 11:54:17;;;;;;;;;;;;;;;;;;;;;
2023/04/07 11:57:45;;;;;;;3.50;1.80;;;;;;;11.68;59.28;99548.50;4954183;28;20627;-93
2023/04/07 12:01:12;;;;;;;3.15;2.40;;;;;;;11.70;59.12;99554.50;5015029;28;20701;-93
2023/04/07 12:12:12;;;;;;;;;;;;;;;;;;;;;
2023/04/07 12:16:10;;;;;;;;;;;;;;;;;;;;;
2023/04/07 12:23:54;;;;;;;;;;;;;;;;;;;;;
2023/04/07 12:27:02;;;;;;;;;;;;;;;;;;;;;
2023/04/07 12:30:45;;;;;;;;;;;;;;;;;;;;;
2023/04/07 12:34:47;;;;;;;;;;;;;;;;;;;;;
2023/04/07 12:49:00;;;;;;;2.03;1.65;;;;;;;11.37;58.85;99564.69;5022783;22;20287;-79
2023/04/07 12:51:26;;;;;;;1.47;1.37;;;;;;;11.33;58.77;99566.69;5044702;28;20198;-79
2023/04/07 12:53:52;;;;;;;2.00;1.73;;;;;;;11.30;58.75;99565.13;5045872;28;20697;-79
2023/04/07 12:56:21;;;;;;;1.70;1.60;;;;;;;11.33;58.87;99566.69;5044726;28;20206;-78
2023/04/07 12:58:46;;;;;;;4.43;2.03;;;;;;;11.30;59.02;99561.66;5042439;28;20206;-79
2023/04/07 13:01:13;;;;;;;1.70;1.60;;;;;;;11.31;59.16;99563.31;5043640;28;20204;-79
2023/04/07 13:03:39;;;;;;;2.13;1.90;;;;;;;11.29;59.20;99562.59;5042753;28;20452;-79
2023/04/07 13:06:04;;;;;;;2.17;1.60;;;;;;;11.28;59.10;99559.13;5042581;28;20213;-79
2023/04/07 13:08:30;;;;;;;1.73;1.50;;;;;;;11.26;59.04;99561.03;5043164;28;20541;-79
2023/04/07 13:10:56;;;;;;;2.33;2.10;;;;;;;11.26;59.27;99563.66;5042918;28;20198;-78
2023/04/07 13:13:22;;;;;;;3.67;2.05;;;;;;;11.24;59.21;99562.91;5042573;28;20658;-79
2023/04/07 13:15:47;;;;;;;2.23;1.57;;;;;;;11.24;59.39;99570.78;5041290;28;20613;-79
2023/04/07 13:18:13;;;;;;;2.13;1.80;;;;;;;11.29;59.28;99565.25;5042056;28;20482;-79
2023/04/07 13:20:38;;;;;;;1.57;1.47;;;;;;;11.34;59.39;99567.53;5042511;28;20205;-79
2023/04/07 13:23:04;;;;;;;5.70;5.30;;;;;;;11.42;59.20;99560.84;5041375;28;20241;-80
2023/04/07 13:25:30;;;;;;;3.50;2.27;;;;;;;11.50;58.96;99561.16;5042144;28;20589;-79
2023/04/07 13:27:55;;;;;;;3.40;2.20;;;;;;;11.55;58.88;99558.19;5042134;28;20459;-79
2023/04/07 13:30:21;;;;;;;2.53;2.00;;;;;;;11.57;58.65;99561.56;5041237;28;20198;-79
2023/04/07 13:32:47;;;;;;;2.03;1.80;;;;;;;11.57;58.68;99558.94;5041990;28;20678;-77
2023/04/07 13:35:17;;;;;;;2.72;2.53;;;;;;;11.55;58.80;99560.81;5041928;28;20300;-77
2023/04/07 13:37:43;;;;;;;2.35;2.15;;;;;;;11.55;58.90;99560.81;5041532;28;20201;-77
2023/04/07 13:40:12;;;;;;;4.22;2.10;;;;;;;11.58;58.97;99565.88;5040390;28;20202;-77
2023/04/07 13:42:38;;;;;;;2.17;1.63;;;;;;;11.66;58.85;99555.66;5041778;28;20198;-77
2023/04/07 13:45:04;;;;;;;2.58;2.10;;;;;;;11.70;58.79;99553.69;5041415;28;20201;-77
2023/04/07 13:47:32;;;;;;;1.90;1.70;;;;;;;11.73;58.86;99549.03;5042238;28;20212;-77
2023/04/07 13:49:59;;;;;;;5.13;2.83;;;;;;;11.81;58.78;99547.66;5041388;28;20824;-77
2023/04/07 13:52:24;;;;;;;2.10;1.67;;;;;;;11.95;58.45;99558.09;5042704;28;20204;-78
2023/04/07 13:54:50;;;;;;;1.93;1.83;;;;;;;12.02;58.28;99550.63;5041627;28;20205;-77
2023/04/07 13:57:19;;;;;;;3.10;1.83;;;;;;;12.02;58.30;99553.25;5040681;28;20296;-77
2023/04/07 13:59:50;;;;;;;2.13;1.95;;;;;;;12.02;58.43;99551.47;5041546;28;20639;-77
2023/04/07 14:02:16;;;;;;;4.15;3.08;;;;;;;12.04;58.56;99543.44;5041873;28;20186;-77
2023/04/07 14:04:42;;;;;;;3.95;2.58;;;;;;;12.04;58.48;99544.28;5041147;28;20206;-77